sensor_id;sensor_type;location;lat;lon;timestamp;P1;durP1;ratioP1;P2;durP2;ratioP2
75993;SDS011;64680;53.800;9.988;2023-03-19T00:00:16;31.98;;;19.95;;
75993;SDS011;64680;53.800;9.988;2023-03-19T00:02:42;31.63;;;20.45;;
75993;SDS011;64680;53.800;9.988;2023-03-19T00:05:13;29.35;;;18.02;;
75993;SDS011;64680;53.800;9.988;2023-03-19T00:07:39;28.27;;;17.75;;
75993;SDS011;64680;53.800;9.988;2023-03-19T00:10:05;25.63;;;16.42;;
75993;SDS011;64680;53.800;9.988;2023-03-19T00:12:31;30.63;;;18.17;;
75993;SDS011;64680;53.800;9.988;2023-03-19T00:14:56;29.88;;;18.08;;
75993;SDS011;64680;53.800;9.988;2023-03-19T00:17:22;27.98;;;18.50;;
75993;SDS011;64680;53.800;9.988;2023-03-19T00:19:47;31.15;;;20.42;;
75993;SDS011;64680;53.800;9.988;2023-03-19T00:22:13;28.92;;;19.35;;
75993;SDS011;64680;53.800;9.988;2023-03-19T00:24:38;27.58;;;18.05;;
75993;SDS011;64680;53.800;9.988;2023-03-19T00:27:04;27.60;;;17.45;;
75993;SDS011;64680;53.800;9.988;2023-03-19T00:29:30;30.13;;;17.65;;
75993;SDS011;64680;53.800;9.988;2023-03-19T00:31:56;27.90;;;17.08;;
75993;SDS011;64680;53.800;9.988;2023-03-19T00:34:22;28.25;;;17.40;;
75993;SDS011;64680;53.800;9.988;2023-03-19T00:36:47;30.50;;;18.67;;
75993;SDS011;64680;53.800;9.988;2023-03-19T00:39:13;30.73;;;18.00;;
75993;SDS011;64680;53.800;9.988;2023-03-19T00:41:39;29.45;;;16.85;;
75993;SDS011;64680;53.800;9.988;2023-03-19T00:44:04;30.65;;;17.92;;
75993;SDS011;64680;53.800;9.988;2023-03-19T00:46:30;28.52;;;18.20;;
75993;SDS011;64680;53.800;9.988;2023-03-19T00:48:56;28.95;;;17.33;;
75993;SDS011;64680;53.800;9.988;2023-03-19T00:51:23;25.80;;;16.48;;
75993;SDS011;64680;53.800;9.988;2023-03-19T00:53:49;29.17;;;17.08;;
75993;SDS011;64680;53.800;9.988;2023-03-19T00:56:15;26.17;;;15.85;;
75993;SDS011;64680;53.800;9.988;2023-03-19T00:58:42;28.27;;;16.20;;
75993;SDS011;64680;53.800;9.988;2023-03-19T01:01:09;28.15;;;16.25;;
75993;SDS011;64680;53.800;9.988;2023-03-19T01:06:02;26.63;;;16.23;;
75993;SDS011;64680;53.800;9.988;2023-03-19T01:08:29;25.70;;;15.18;;
75993;SDS011;64680;53.800;9.988;2023-03-19T01:10:55;27.02;;;15.13;;
75993;SDS011;64680;53.800;9.988;2023-03-19T01:13:20;28.00;;;17.38;;
75993;SDS011;64680;53.800;9.988;2023-03-19T01:15:50;27.55;;;17.40;;
75993;SDS011;64680;53.800;9.988;2023-03-19T01:18:17;26.10;;;16.35;;
75993;SDS011;64680;53.800;9.988;2023-03-19T01:20:43;30.35;;;16.58;;
75993;SDS011;64680;53.800;9.988;2023-03-19T01:23:08;24.17;;;15.38;;
75993;SDS011;64680;53.800;9.988;2023-03-19T01:25:34;24.73;;;15.48;;
75993;SDS011;64680;53.800;9.988;2023-03-19T01:28:00;25.52;;;15.00;;
75993;SDS011;64680;53.800;9.988;2023-03-19T01:30:26;25.88;;;14.60;;
75993;SDS011;64680;53.800;9.988;2023-03-19T01:32:52;27.55;;;16.10;;
75993;SDS011;64680;53.800;9.988;2023-03-19T01:35:18;23.23;;;14.82;;
75993;SDS011;64680;53.800;9.988;2023-03-19T01:37:43;26.58;;;15.52;;
75993;SDS011;64680;53.800;9.988;2023-03-19T01:40:10;23.45;;;14.13;;
75993;SDS011;64680;53.800;9.988;2023-03-19T01:42:53;24.77;;;15.07;;
75993;SDS011;64680;53.800;9.988;2023-03-19T01:45:31;23.05;;;14.40;;
75993;SDS011;64680;53.800;9.988;2023-03-19T01:47:58;25.73;;;15.95;;
75993;SDS011;64680;53.800;9.988;2023-03-19T01:50:34;28.63;;;16.30;;
75993;SDS011;64680;53.800;9.988;2023-03-19T01:53:07;26.58;;;15.15;;
75993;SDS011;64680;53.800;9.988;2023-03-19T01:55:35;25.45;;;14.48;;
75993;SDS011;64680;53.800;9.988;2023-03-19T01:58:01;24.33;;;15.10;;
75993;SDS011;64680;53.800;9.988;2023-03-19T02:00:30;21.80;;;14.98;;
75993;SDS011;64680;53.800;9.988;2023-03-19T02:02:57;24.13;;;14.80;;
75993;SDS011;64680;53.800;9.988;2023-03-19T02:05:25;24.60;;;15.73;;
75993;SDS011;64680;53.800;9.988;2023-03-19T02:07:57;23.95;;;13.68;;
75993;SDS011;64680;53.800;9.988;2023-03-19T02:10:26;21.00;;;13.45;;
75993;SDS011;64680;53.800;9.988;2023-03-19T02:12:53;25.25;;;13.52;;
75993;SDS011;64680;53.800;9.988;2023-03-19T02:15:19;23.05;;;13.93;;
75993;SDS011;64680;53.800;9.988;2023-03-19T02:17:45;21.85;;;13.50;;
75993;SDS011;64680;53.800;9.988;2023-03-19T02:22:38;24.58;;;13.80;;
75993;SDS011;64680;53.800;9.988;2023-03-19T02:25:12;19.75;;;13.30;;
75993;SDS011;64680;53.800;9.988;2023-03-19T02:27:43;19.27;;;12.45;;
75993;SDS011;64680;53.800;9.988;2023-03-19T02:30:19;24.20;;;13.82;;
75993;SDS011;64680;53.800;9.988;2023-03-19T02:32:50;22.90;;;13.32;;
75993;SDS011;64680;53.800;9.988;2023-03-19T02:35:16;20.15;;;12.65;;
75993;SDS011;64680;53.800;9.988;2023-03-19T02:37:42;20.50;;;13.02;;
75993;SDS011;64680;53.800;9.988;2023-03-19T02:40:08;22.48;;;13.13;;
75993;SDS011;64680;53.800;9.988;2023-03-19T02:42:39;20.17;;;11.98;;
75993;SDS011;64680;53.800;9.988;2023-03-19T02:45:05;19.58;;;12.30;;
75993;SDS011;64680;53.800;9.988;2023-03-19T02:47:31;20.40;;;12.20;;
75993;SDS011;64680;53.800;9.988;2023-03-19T02:49:57;21.73;;;11.95;;
75993;SDS011;64680;53.800;9.988;2023-03-19T02:52:22;18.13;;;10.35;;
75993;SDS011;64680;53.800;9.988;2023-03-19T02:54:48;20.08;;;11.70;;
75993;SDS011;64680;53.800;9.988;2023-03-19T02:57:16;21.48;;;11.60;;
75993;SDS011;64680;53.800;9.988;2023-03-19T02:59:41;16.85;;;11.02;;
75993;SDS011;64680;53.800;9.988;2023-03-19T03:02:07;19.05;;;11.25;;
75993;SDS011;64680;53.800;9.988;2023-03-19T03:04:34;17.13;;;11.65;;
75993;SDS011;64680;53.800;9.988;2023-03-19T03:07:01;19.75;;;11.05;;
75993;SDS011;64680;53.800;9.988;2023-03-19T03:09:27;16.27;;;10.52;;
75993;SDS011;64680;53.800;9.988;2023-03-19T03:11:53;18.10;;;10.95;;
75993;SDS011;64680;53.800;9.988;2023-03-19T03:14:19;14.57;;;9.48;;
75993;SDS011;64680;53.800;9.988;2023-03-19T03:16:44;18.55;;;11.00;;
75993;SDS011;64680;53.800;9.988;2023-03-19T03:19:10;15.40;;;10.10;;
75993;SDS011;64680;53.800;9.988;2023-03-19T03:21:36;19.02;;;10.18;;
75993;SDS011;64680;53.800;9.988;2023-03-19T03:24:02;15.95;;;10.02;;
75993;SDS011;64680;53.800;9.988;2023-03-19T03:26:27;17.33;;;9.70;;
75993;SDS011;64680;53.800;9.988;2023-03-19T03:28:53;16.38;;;10.27;;
75993;SDS011;64680;53.800;9.988;2023-03-19T03:31:19;18.70;;;11.60;;
75993;SDS011;64680;53.800;9.988;2023-03-19T03:33:45;16.17;;;10.25;;
75993;SDS011;64680;53.800;9.988;2023-03-19T03:36:11;16.98;;;10.60;;
75993;SDS011;64680;53.800;9.988;2023-03-19T03:38:37;16.95;;;10.38;;
75993;SDS011;64680;53.800;9.988;2023-03-19T03:41:03;14.35;;;9.30;;
75993;SDS011;64680;53.800;9.988;2023-03-19T03:43:29;17.70;;;10.57;;
75993;SDS011;64680;53.800;9.988;2023-03-19T03:45:55;18.17;;;10.88;;
75993;SDS011;64680;53.800;9.988;2023-03-19T03:48:21;19.83;;;11.15;;
75993;SDS011;64680;53.800;9.988;2023-03-19T03:50:47;17.30;;;10.73;;
75993;SDS011;64680;53.800;9.988;2023-03-19T03:53:13;19.38;;;11.93;;
75993;SDS011;64680;53.800;9.988;2023-03-19T03:55:39;20.20;;;11.27;;
75993;SDS011;64680;53.800;9.988;2023-03-19T03:58:05;18.52;;;11.05;;
75993;SDS011;64680;53.800;9.988;2023-03-19T04:00:31;18.40;;;11.00;;
75993;SDS011;64680;53.800;9.988;2023-03-19T04:02:58;17.15;;;10.50;;
75993;SDS011;64680;53.800;9.988;2023-03-19T04:05:23;20.30;;;10.57;;
75993;SDS011;64680;53.800;9.988;2023-03-19T04:07:49;17.90;;;11.25;;
75993;SDS011;64680;53.800;9.988;2023-03-19T04:10:15;18.45;;;10.75;;
75993;SDS011;64680;53.800;9.988;2023-03-19T04:12:41;15.10;;;10.18;;
75993;SDS011;64680;53.800;9.988;2023-03-19T04:15:08;17.73;;;10.73;;
75993;SDS011;64680;53.800;9.988;2023-03-19T04:17:35;19.70;;;11.95;;
75993;SDS011;64680;53.800;9.988;2023-03-19T04:20:00;18.73;;;11.57;;
75993;SDS011;64680;53.800;9.988;2023-03-19T04:22:29;20.40;;;13.48;;
75993;SDS011;64680;53.800;9.988;2023-03-19T04:24:55;17.70;;;11.43;;
75993;SDS011;64680;53.800;9.988;2023-03-19T04:27:21;19.08;;;11.38;;
75993;SDS011;64680;53.800;9.988;2023-03-19T04:29:46;17.45;;;10.95;;
75993;SDS011;64680;53.800;9.988;2023-03-19T04:32:12;16.92;;;10.45;;
75993;SDS011;64680;53.800;9.988;2023-03-19T04:34:38;19.42;;;11.60;;
75993;SDS011;64680;53.800;9.988;2023-03-19T04:37:04;18.90;;;11.07;;
75993;SDS011;64680;53.800;9.988;2023-03-19T04:39:30;18.60;;;11.52;;
75993;SDS011;64680;53.800;9.988;2023-03-19T04:41:55;19.17;;;12.15;;
75993;SDS011;64680;53.800;9.988;2023-03-19T04:44:21;17.92;;;10.50;;
75993;SDS011;64680;53.800;9.988;2023-03-19T04:46:47;14.27;;;9.13;;
75993;SDS011;64680;53.800;9.988;2023-03-19T04:49:13;18.05;;;11.00;;
75993;SDS011;64680;53.800;9.988;2023-03-19T04:51:39;16.55;;;10.52;;
75993;SDS011;64680;53.800;9.988;2023-03-19T04:54:06;16.77;;;10.30;;
75993;SDS011;64680;53.800;9.988;2023-03-19T04:56:32;14.85;;;10.00;;
75993;SDS011;64680;53.800;9.988;2023-03-19T04:58:57;17.67;;;11.15;;
75993;SDS011;64680;53.800;9.988;2023-03-19T05:01:23;15.68;;;10.23;;
75993;SDS011;64680;53.800;9.988;2023-03-19T05:03:49;13.93;;;9.35;;
75993;SDS011;64680;53.800;9.988;2023-03-19T05:06:15;14.18;;;9.40;;
75993;SDS011;64680;53.800;9.988;2023-03-19T05:08:44;14.10;;;9.25;;
75993;SDS011;64680;53.800;9.988;2023-03-19T05:11:10;14.60;;;9.32;;
75993;SDS011;64680;53.800;9.988;2023-03-19T05:13:36;13.10;;;8.48;;
75993;SDS011;64680;53.800;9.988;2023-03-19T05:16:02;13.65;;;9.05;;
75993;SDS011;64680;53.800;9.988;2023-03-19T05:18:28;14.65;;;9.43;;
75993;SDS011;64680;53.800;9.988;2023-03-19T05:20:54;14.68;;;8.82;;
75993;SDS011;64680;53.800;9.988;2023-03-19T05:23:19;14.32;;;9.10;;
75993;SDS011;64680;53.800;9.988;2023-03-19T05:25:45;14.63;;;9.73;;
75993;SDS011;64680;53.800;9.988;2023-03-19T05:28:12;15.20;;;9.10;;
75993;SDS011;64680;53.800;9.988;2023-03-19T05:30:37;15.98;;;9.75;;
75993;SDS011;64680;53.800;9.988;2023-03-19T05:33:03;14.00;;;9.15;;
75993;SDS011;64680;53.800;9.988;2023-03-19T05:35:29;14.45;;;9.20;;
75993;SDS011;64680;53.800;9.988;2023-03-19T05:37:56;13.75;;;9.05;;
75993;SDS011;64680;53.800;9.988;2023-03-19T05:40:22;15.73;;;9.18;;
75993;SDS011;64680;53.800;9.988;2023-03-19T05:42:49;15.60;;;8.80;;
75993;SDS011;64680;53.800;9.988;2023-03-19T05:45:15;16.65;;;9.40;;
75993;SDS011;64680;53.800;9.988;2023-03-19T05:47:41;15.43;;;9.23;;
75993;SDS011;64680;53.800;9.988;2023-03-19T05:50:07;14.60;;;9.15;;
75993;SDS011;64680;53.800;9.988;2023-03-19T05:52:34;16.60;;;9.68;;
75993;SDS011;64680;53.800;9.988;2023-03-19T05:55:00;14.27;;;9.25;;
75993;SDS011;64680;53.800;9.988;2023-03-19T05:57:26;14.90;;;9.13;;
75993;SDS011;64680;53.800;9.988;2023-03-19T05:59:51;13.88;;;8.98;;
75993;SDS011;64680;53.800;9.988;2023-03-19T06:02:17;13.82;;;8.82;;
75993;SDS011;64680;53.800;9.988;2023-03-19T06:04:42;15.88;;;9.60;;
75993;SDS011;64680;53.800;9.988;2023-03-19T06:07:08;14.02;;;9.32;;
75993;SDS011;64680;53.800;9.988;2023-03-19T06:09:34;12.30;;;8.38;;
75993;SDS011;64680;53.800;9.988;2023-03-19T06:11:59;13.32;;;9.20;;
75993;SDS011;64680;53.800;9.988;2023-03-19T06:14:25;12.70;;;8.10;;
75993;SDS011;64680;53.800;9.988;2023-03-19T06:16:51;13.38;;;8.70;;
75993;SDS011;64680;53.800;9.988;2023-03-19T06:19:16;14.48;;;8.80;;
75993;SDS011;64680;53.800;9.988;2023-03-19T06:21:42;12.57;;;8.70;;
75993;SDS011;64680;53.800;9.988;2023-03-19T06:24:08;13.88;;;8.85;;
75993;SDS011;64680;53.800;9.988;2023-03-19T06:26:33;13.02;;;8.25;;
75993;SDS011;64680;53.800;9.988;2023-03-19T06:29:00;11.50;;;8.27;;
75993;SDS011;64680;53.800;9.988;2023-03-19T06:31:25;12.43;;;8.68;;
75993;SDS011;64680;53.800;9.988;2023-03-19T06:33:51;15.27;;;8.10;;
75993;SDS011;64680;53.800;9.988;2023-03-19T06:36:18;13.50;;;8.65;;
75993;SDS011;64680;53.800;9.988;2023-03-19T06:38:44;13.63;;;8.65;;
75993;SDS011;64680;53.800;9.988;2023-03-19T06:41:09;11.18;;;7.70;;
75993;SDS011;64680;53.800;9.988;2023-03-19T06:43:35;12.27;;;8.13;;
75993;SDS011;64680;53.800;9.988;2023-03-19T06:46:04;12.20;;;7.80;;
75993;SDS011;64680;53.800;9.988;2023-03-19T06:48:30;12.98;;;7.93;;
75993;SDS011;64680;53.800;9.988;2023-03-19T06:50:57;10.45;;;7.55;;
75993;SDS011;64680;53.800;9.988;2023-03-19T06:53:23;10.13;;;7.43;;
75993;SDS011;64680;53.800;9.988;2023-03-19T06:55:48;9.45;;;7.25;;
75993;SDS011;64680;53.800;9.988;2023-03-19T06:58:14;10.23;;;6.85;;
75993;SDS011;64680;53.800;9.988;2023-03-19T07:00:40;10.80;;;7.47;;
75993;SDS011;64680;53.800;9.988;2023-03-19T07:03:05;11.68;;;7.22;;
75993;SDS011;64680;53.800;9.988;2023-03-19T07:05:31;9.38;;;6.90;;
75993;SDS011;64680;53.800;9.988;2023-03-19T07:07:57;9.27;;;7.18;;
75993;SDS011;64680;53.800;9.988;2023-03-19T07:10:23;11.57;;;7.80;;
75993;SDS011;64680;53.800;9.988;2023-03-19T07:12:49;10.68;;;7.00;;
75993;SDS011;64680;53.800;9.988;2023-03-19T07:15:14;9.40;;;7.20;;
75993;SDS011;64680;53.800;9.988;2023-03-19T07:17:41;8.63;;;7.28;;
75993;SDS011;64680;53.800;9.988;2023-03-19T07:20:10;9.90;;;6.40;;
75993;SDS011;64680;53.800;9.988;2023-03-19T07:22:36;8.52;;;5.93;;
75993;SDS011;64680;53.800;9.988;2023-03-19T07:25:02;9.02;;;6.60;;
75993;SDS011;64680;53.800;9.988;2023-03-19T07:27:28;8.40;;;6.00;;
75993;SDS011;64680;53.800;9.988;2023-03-19T07:29:53;10.45;;;6.40;;
75993;SDS011;64680;53.800;9.988;2023-03-19T07:32:19;7.47;;;5.70;;
75993;SDS011;64680;53.800;9.988;2023-03-19T07:34:46;7.95;;;5.60;;
75993;SDS011;64680;53.800;9.988;2023-03-19T07:37:12;7.45;;;5.00;;
75993;SDS011;64680;53.800;9.988;2023-03-19T07:39:37;11.48;;;6.90;;
75993;SDS011;64680;53.800;9.988;2023-03-19T07:42:03;14.32;;;8.20;;
75993;SDS011;64680;53.800;9.988;2023-03-19T07:44:29;19.30;;;11.23;;
75993;SDS011;64680;53.800;9.988;2023-03-19T07:46:55;13.75;;;8.48;;
75993;SDS011;64680;53.800;9.988;2023-03-19T07:49:21;8.07;;;6.13;;
75993;SDS011;64680;53.800;9.988;2023-03-19T07:51:47;8.55;;;6.15;;
75993;SDS011;64680;53.800;9.988;2023-03-19T07:54:13;7.05;;;5.88;;
75993;SDS011;64680;53.800;9.988;2023-03-19T07:56:39;7.88;;;7.07;;
75993;SDS011;64680;53.800;9.988;2023-03-19T07:59:05;7.07;;;5.75;;
75993;SDS011;64680;53.800;9.988;2023-03-19T08:01:31;7.82;;;7.03;;
75993;SDS011;64680;53.800;9.988;2023-03-19T08:03:57;6.28;;;4.97;;
75993;SDS011;64680;53.800;9.988;2023-03-19T08:06:23;7.32;;;5.40;;
75993;SDS011;64680;53.800;9.988;2023-03-19T08:08:48;7.15;;;5.28;;
75993;SDS011;64680;53.800;9.988;2023-03-19T08:11:14;7.40;;;5.07;;
75993;SDS011;64680;53.800;9.988;2023-03-19T08:13:40;7.97;;;6.03;;
75993;SDS011;64680;53.800;9.988;2023-03-19T08:16:06;6.07;;;5.15;;
75993;SDS011;64680;53.800;9.988;2023-03-19T08:18:33;6.30;;;4.78;;
75993;SDS011;64680;53.800;9.988;2023-03-19T08:20:59;7.32;;;4.72;;
75993;SDS011;64680;53.800;9.988;2023-03-19T08:23:25;7.38;;;5.35;;
75993;SDS011;64680;53.800;9.988;2023-03-19T08:25:51;5.97;;;4.47;;
75993;SDS011;64680;53.800;9.988;2023-03-19T08:28:18;5.30;;;4.45;;
75993;SDS011;64680;53.800;9.988;2023-03-19T08:30:44;5.53;;;4.20;;
75993;SDS011;64680;53.800;9.988;2023-03-19T08:33:09;5.95;;;4.25;;
75993;SDS011;64680;53.800;9.988;2023-03-19T08:35:35;6.50;;;4.80;;
75993;SDS011;64680;53.800;9.988;2023-03-19T08:38:01;5.97;;;4.18;;
75993;SDS011;64680;53.800;9.988;2023-03-19T08:40:27;6.10;;;4.63;;
75993;SDS011;64680;53.800;9.988;2023-03-19T08:42:52;6.25;;;4.38;;
75993;SDS011;64680;53.800;9.988;2023-03-19T08:45:18;6.93;;;4.47;;
75993;SDS011;64680;53.800;9.988;2023-03-19T08:47:45;5.85;;;3.95;;
75993;SDS011;64680;53.800;9.988;2023-03-19T08:50:11;6.47;;;4.10;;
75993;SDS011;64680;53.800;9.988;2023-03-19T08:52:37;5.18;;;3.95;;
75993;SDS011;64680;53.800;9.988;2023-03-19T08:55:03;6.45;;;4.35;;
75993;SDS011;64680;53.800;9.988;2023-03-19T08:57:30;6.60;;;4.47;;
75993;SDS011;64680;53.800;9.988;2023-03-19T08:59:56;5.65;;;4.35;;
75993;SDS011;64680;53.800;9.988;2023-03-19T09:02:21;6.72;;;4.47;;
75993;SDS011;64680;53.800;9.988;2023-03-19T09:04:47;5.00;;;4.22;;
75993;SDS011;64680;53.800;9.988;2023-03-19T09:07:13;6.18;;;4.03;;
75993;SDS011;64680;53.800;9.988;2023-03-19T09:09:40;5.63;;;4.60;;
75993;SDS011;64680;53.800;9.988;2023-03-19T09:12:06;6.75;;;4.63;;
75993;SDS011;64680;53.800;9.988;2023-03-19T09:14:33;6.70;;;4.50;;
75993;SDS011;64680;53.800;9.988;2023-03-19T09:17:00;6.13;;;3.90;;
75993;SDS011;64680;53.800;9.988;2023-03-19T09:19:25;5.97;;;5.13;;
75993;SDS011;64680;53.800;9.988;2023-03-19T09:21:51;6.07;;;4.28;;
75993;SDS011;64680;53.800;9.988;2023-03-19T09:24:17;4.15;;;3.22;;
75993;SDS011;64680;53.800;9.988;2023-03-19T09:26:43;5.47;;;3.78;;
75993;SDS011;64680;53.800;9.988;2023-03-19T09:29:10;6.65;;;4.60;;
75993;SDS011;64680;53.800;9.988;2023-03-19T09:31:36;5.53;;;4.32;;
75993;SDS011;64680;53.800;9.988;2023-03-19T09:34:02;3.90;;;2.70;;
75993;SDS011;64680;53.800;9.988;2023-03-19T09:36:27;4.50;;;3.10;;
75993;SDS011;64680;53.800;9.988;2023-03-19T09:38:53;4.97;;;2.97;;
75993;SDS011;64680;53.800;9.988;2023-03-19T09:41:28;4.18;;;3.08;;
75993;SDS011;64680;53.800;9.988;2023-03-19T09:49:24;4.32;;;3.00;;
75993;SDS011;64680;53.800;9.988;2023-03-19T09:54:49;4.07;;;2.60;;
75993;SDS011;64680;53.800;9.988;2023-03-19T09:57:16;2.55;;;2.13;;
75993;SDS011;64680;53.800;9.988;2023-03-19T09:59:45;3.85;;;2.58;;
75993;SDS011;64680;53.800;9.988;2023-03-19T10:16:33;4.18;;;2.85;;
75993;SDS011;64680;53.800;9.988;2023-03-19T10:19:02;3.10;;;2.28;;
75993;SDS011;64680;53.800;9.988;2023-03-19T10:21:38;4.20;;;2.30;;
75993;SDS011;64680;53.800;9.988;2023-03-19T10:24:13;3.58;;;2.25;;
75993;SDS011;64680;53.800;9.988;2023-03-19T10:26:46;3.38;;;2.45;;
75993;SDS011;64680;53.800;9.988;2023-03-19T10:29:14;3.28;;;2.40;;
75993;SDS011;64680;53.800;9.988;2023-03-19T10:34:49;2.53;;;2.22;;
75993;SDS011;64680;53.800;9.988;2023-03-19T10:37:18;2.65;;;1.90;;
75993;SDS011;64680;53.800;9.988;2023-03-19T10:39:51;4.93;;;2.50;;
75993;SDS011;64680;53.800;9.988;2023-03-19T10:44:52;4.03;;;2.95;;
75993;SDS011;64680;53.800;9.988;2023-03-19T10:47:28;5.30;;;2.63;;
75993;SDS011;64680;53.800;9.988;2023-03-19T10:52:29;2.63;;;1.83;;
75993;SDS011;64680;53.800;9.988;2023-03-19T10:55:11;3.78;;;1.80;;
75993;SDS011;64680;53.800;9.988;2023-03-19T10:57:43;3.97;;;2.88;;
75993;SDS011;64680;53.800;9.988;2023-03-19T11:00:21;3.13;;;2.40;;
75993;SDS011;64680;53.800;9.988;2023-03-19T11:02:49;3.38;;;2.30;;
75993;SDS011;64680;53.800;9.988;2023-03-19T11:07:50;4.25;;;2.70;;
75993;SDS011;64680;53.800;9.988;2023-03-19T11:10:20;3.05;;;2.15;;
75993;SDS011;64680;53.800;9.988;2023-03-19T11:12:53;4.43;;;2.50;;
75993;SDS011;64680;53.800;9.988;2023-03-19T11:15:31;3.00;;;2.10;;
75993;SDS011;64680;53.800;9.988;2023-03-19T11:18:13;3.17;;;2.10;;
75993;SDS011;64680;53.800;9.988;2023-03-19T11:20:43;3.00;;;2.10;;
75993;SDS011;64680;53.800;9.988;2023-03-19T11:23:26;3.35;;;2.20;;
75993;SDS011;64680;53.800;9.988;2023-03-19T11:25:53;3.92;;;2.22;;
75993;SDS011;64680;53.800;9.988;2023-03-19T11:28:23;3.45;;;2.13;;
75993;SDS011;64680;53.800;9.988;2023-03-19T11:33:37;4.68;;;2.50;;
75993;SDS011;64680;53.800;9.988;2023-03-19T11:36:23;4.35;;;2.75;;
75993;SDS011;64680;53.800;9.988;2023-03-19T11:42:05;3.90;;;2.40;;
75993;SDS011;64680;53.800;9.988;2023-03-19T11:45:02;3.33;;;2.40;;
75993;SDS011;64680;53.800;9.988;2023-03-19T11:50:32;6.03;;;3.17;;
75993;SDS011;64680;53.800;9.988;2023-03-19T11:53:13;3.47;;;2.92;;
75993;SDS011;64680;53.800;9.988;2023-03-19T11:56:02;5.93;;;3.20;;
75993;SDS011;64680;53.800;9.988;2023-03-19T12:03:57;5.53;;;3.13;;
75993;SDS011;64680;53.800;9.988;2023-03-19T12:06:38;3.80;;;2.63;;
75993;SDS011;64680;53.800;9.988;2023-03-19T12:09:34;5.97;;;3.25;;
75993;SDS011;64680;53.800;9.988;2023-03-19T12:12:24;6.95;;;3.38;;
75993;SDS011;64680;53.800;9.988;2023-03-19T12:26:03;3.55;;;2.40;;
75993;SDS011;64680;53.800;9.988;2023-03-19T12:34:06;4.57;;;2.47;;
75993;SDS011;64680;53.800;9.988;2023-03-19T12:37:11;4.22;;;2.63;;
75993;SDS011;64680;53.800;9.988;2023-03-19T12:39:54;3.17;;;2.35;;
75993;SDS011;64680;53.800;9.988;2023-03-19T12:42:37;3.60;;;1.90;;
75993;SDS011;64680;53.800;9.988;2023-03-19T12:45:49;3.97;;;2.15;;
75993;SDS011;64680;53.800;9.988;2023-03-19T12:47:59;3.85;;;2.17;;
75993;SDS011;64680;53.800;9.988;2023-03-19T12:50:48;4.78;;;2.60;;
75993;SDS011;64680;53.800;9.988;2023-03-19T12:56:18;4.32;;;2.70;;
75993;SDS011;64680;53.800;9.988;2023-03-19T12:58:58;4.35;;;2.50;;
75993;SDS011;64680;53.800;9.988;2023-03-19T13:01:43;3.70;;;2.28;;
75993;SDS011;64680;53.800;9.988;2023-03-19T13:12:17;4.43;;;3.13;;
75993;SDS011;64680;53.800;9.988;2023-03-19T13:17:30;5.05;;;3.30;;
75993;SDS011;64680;53.800;9.988;2023-03-19T13:22:51;4.75;;;3.10;;
75993;SDS011;64680;53.800;9.988;2023-03-19T13:25:24;5.20;;;2.97;;
75993;SDS011;64680;53.800;9.988;2023-03-19T13:32:49;7.65;;;3.97;;
75993;SDS011;64680;53.800;9.988;2023-03-19T13:43:56;6.97;;;3.47;;
75993;SDS011;64680;53.800;9.988;2023-03-19T13:48:50;6.22;;;4.15;;
75993;SDS011;64680;53.800;9.988;2023-03-19T13:56:17;5.38;;;3.42;;
75993;SDS011;64680;53.800;9.988;2023-03-19T14:01:39;5.60;;;3.63;;
75993;SDS011;64680;53.800;9.988;2023-03-19T14:04:16;6.78;;;4.20;;
75993;SDS011;64680;53.800;9.988;2023-03-19T14:06:44;6.13;;;4.10;;
75993;SDS011;64680;53.800;9.988;2023-03-19T14:09:29;8.27;;;4.53;;
75993;SDS011;64680;53.800;9.988;2023-03-19T14:12:08;7.30;;;3.95;;
75993;SDS011;64680;53.800;9.988;2023-03-19T14:14:50;7.18;;;4.45;;
75993;SDS011;64680;53.800;9.988;2023-03-19T14:17:27;5.45;;;3.92;;
75993;SDS011;64680;53.800;9.988;2023-03-19T14:20:03;4.40;;;3.72;;
75993;SDS011;64680;53.800;9.988;2023-03-19T14:22:37;5.32;;;3.50;;
75993;SDS011;64680;53.800;9.988;2023-03-19T14:27:46;6.63;;;4.88;;
75993;SDS011;64680;53.800;9.988;2023-03-19T14:32:50;4.88;;;4.30;;
75993;SDS011;64680;53.800;9.988;2023-03-19T14:35:18;6.55;;;4.15;;
75993;SDS011;64680;53.800;9.988;2023-03-19T14:37:45;7.80;;;4.68;;
75993;SDS011;64680;53.800;9.988;2023-03-19T14:40:19;4.53;;;3.90;;
75993;SDS011;64680;53.800;9.988;2023-03-19T14:42:57;6.60;;;4.47;;
75993;SDS011;64680;53.800;9.988;2023-03-19T14:54:04;6.70;;;4.38;;
75993;SDS011;64680;53.800;9.988;2023-03-19T14:56:41;8.70;;;5.00;;
75993;SDS011;64680;53.800;9.988;2023-03-19T14:59:07;8.30;;;6.18;;
75993;SDS011;64680;53.800;9.988;2023-03-19T15:01:37;7.78;;;6.72;;
75993;SDS011;64680;53.800;9.988;2023-03-19T15:04:10;7.22;;;6.35;;
75993;SDS011;64680;53.800;9.988;2023-03-19T15:06:38;9.35;;;6.60;;
75993;SDS011;64680;53.800;9.988;2023-03-19T15:09:06;8.90;;;6.50;;
75993;SDS011;64680;53.800;9.988;2023-03-19T15:11:43;8.00;;;5.72;;
75993;SDS011;64680;53.800;9.988;2023-03-19T15:14:43;9.23;;;6.90;;
75993;SDS011;64680;53.800;9.988;2023-03-19T15:17:24;9.07;;;6.75;;
75993;SDS011;64680;53.800;9.988;2023-03-19T15:19:52;10.35;;;7.57;;
75993;SDS011;64680;53.800;9.988;2023-03-19T15:22:20;12.10;;;8.25;;
75993;SDS011;64680;53.800;9.988;2023-03-19T15:25:06;10.90;;;8.88;;
75993;SDS011;64680;53.800;9.988;2023-03-19T15:27:35;12.35;;;8.30;;
75993;SDS011;64680;53.800;9.988;2023-03-19T15:30:01;11.05;;;8.43;;
75993;SDS011;64680;53.800;9.988;2023-03-19T15:32:34;11.35;;;8.60;;
75993;SDS011;64680;53.800;9.988;2023-03-19T15:35:02;13.63;;;9.52;;
75993;SDS011;64680;53.800;9.988;2023-03-19T15:37:30;11.73;;;8.45;;
75993;SDS011;64680;53.800;9.988;2023-03-19T15:40:02;11.38;;;8.45;;
75993;SDS011;64680;53.800;9.988;2023-03-19T15:42:33;13.40;;;8.85;;
75993;SDS011;64680;53.800;9.988;2023-03-19T15:45:03;13.40;;;9.55;;
75993;SDS011;64680;53.800;9.988;2023-03-19T15:47:36;14.00;;;9.50;;
75993;SDS011;64680;53.800;9.988;2023-03-19T15:52:37;11.98;;;9.15;;
75993;SDS011;64680;53.800;9.988;2023-03-19T15:55:05;12.40;;;9.65;;
75993;SDS011;64680;53.800;9.988;2023-03-19T15:57:33;13.52;;;9.60;;
75993;SDS011;64680;53.800;9.988;2023-03-19T16:00:00;12.25;;;9.35;;
75993;SDS011;64680;53.800;9.988;2023-03-19T16:02:30;11.38;;;8.82;;
75993;SDS011;64680;53.800;9.988;2023-03-19T16:04:57;13.10;;;10.10;;
75993;SDS011;64680;53.800;9.988;2023-03-19T16:07:47;12.93;;;10.23;;
75993;SDS011;64680;53.800;9.988;2023-03-19T16:10:23;13.07;;;9.70;;
75993;SDS011;64680;53.800;9.988;2023-03-19T16:12:56;14.70;;;9.93;;
75993;SDS011;64680;53.800;9.988;2023-03-19T16:15:43;16.25;;;10.38;;
75993;SDS011;64680;53.800;9.988;2023-03-19T16:20:40;16.15;;;10.98;;
75993;SDS011;64680;53.800;9.988;2023-03-19T16:23:20;17.75;;;10.98;;
75993;SDS011;64680;53.800;9.988;2023-03-19T16:25:52;16.20;;;11.30;;
75993;SDS011;64680;53.800;9.988;2023-03-19T16:28:18;13.93;;;10.77;;
75993;SDS011;64680;53.800;9.988;2023-03-19T16:30:48;16.02;;;11.15;;
75993;SDS011;64680;53.800;9.988;2023-03-19T16:33:15;14.68;;;10.43;;
75993;SDS011;64680;53.800;9.988;2023-03-19T16:35:41;14.88;;;10.48;;
75993;SDS011;64680;53.800;9.988;2023-03-19T16:40:47;17.00;;;9.85;;
75993;SDS011;64680;53.800;9.988;2023-03-19T16:43:15;19.30;;;11.52;;
75993;SDS011;64680;53.800;9.988;2023-03-19T16:45:43;13.55;;;9.38;;
75993;SDS011;64680;53.800;9.988;2023-03-19T16:48:13;14.55;;;10.10;;
75993;SDS011;64680;53.800;9.988;2023-03-19T16:50:39;12.95;;;9.27;;
75993;SDS011;64680;53.800;9.988;2023-03-19T16:53:19;14.32;;;9.52;;
75993;SDS011;64680;53.800;9.988;2023-03-19T16:55:53;11.80;;;8.32;;